This is the latest recevied weather packets stored in our database for station/object N8WJW. If no packets are shown the sender has not sent any weather packets the latest 1 day(s).
| Time | Temp. | Humidity | Pressure | Rain* | Wind** | Luminosity | Snow |
|---|---|---|---|---|---|---|---|
| 1778013546 | 12.78° C | 98% | 1009.2 hPa | 0 mm | 0.89 m/s, 223° | 30 W/m² | - |
| 1778013243 | 12.78° C | 98% | 1008.9 hPa | 0 mm | 0.89 m/s, 196° | 42 W/m² | - |
| 1778012939 | 12.78° C | 98% | 1008.9 hPa | 0 mm | 0 m/s | 22 W/m² | - |
| 1778012635 | 12.78° C | 97% | 1009 hPa | 0 mm | 0 m/s | 23 W/m² | - |
| 1778012332 | 12.78° C | 97% | 1009 hPa | 0 mm | 0 m/s | 43 W/m² | - |
| 1778012029 | 12.78° C | 97% | 1008.9 hPa | 0 mm | 0 m/s | 36 W/m² | - |
| 1778011728 | 12.78° C | 97% | 1008.9 hPa | 0 mm | 0 m/s | 68 W/m² | - |
| 1778011424 | 13.33° C | 96% | 1009.3 hPa | 0 mm | 1.34 m/s, 236° | 41 W/m² | - |
| 1778011120 | 13.33° C | 96% | 1009.2 hPa | 0 mm | 0 m/s | 47 W/m² | - |
| 1778010817 | 13.33° C | 96% | 1009.3 hPa | 0 mm | 0 m/s | 43 W/m² | - |
| 1778010514 | 13.89° C | 96% | 1009.3 hPa | 0 mm | 0 m/s | 51 W/m² | - |
| 1778010211 | 13.89° C | 95% | 1009 hPa | 0 mm | 0 m/s | 88 W/m² | - |
| 1778009906 | 13.89° C | 94% | 1009.1 hPa | 0 mm | 0.45 m/s, 283° | 92 W/m² | - |
| 1778009605 | 13.89° C | 94% | 1009.2 hPa | 0 mm | 0 m/s | 72 W/m² | - |
| 1778009302 | 13.89° C | 93% | 1009.1 hPa | 0 mm | 0 m/s | 72 W/m² | - |
| 1778009000 | 14.44° C | 93% | 1009.1 hPa | 0 mm | 0.89 m/s, 121° | 140 W/m² | - |
| 1778008697 | 14.44° C | 92% | 1009.2 hPa | 0 mm | 0.89 m/s, 169° | 113 W/m² | - |
| 1778008396 | 14.44° C | 91% | 1009.2 hPa | 0 mm | 0 m/s | 92 W/m² | - |
| 1778008092 | 15° C | 89% | 1009.2 hPa | 0 mm | 0.45 m/s, 241° | 94 W/m² | - |
| 1778007788 | 15° C | 88% | 1009.3 hPa | 0 mm | 0 m/s | 82 W/m² | - |
| 1778007484 | 15.56° C | 85% | 1009.2 hPa | 0 mm | 0 m/s | 94 W/m² | - |
| 1778007180 | 16.11° C | 82% | 1009.2 hPa | 0 mm | 0 m/s | 89 W/m² | - |
| 1778006876 | 16.11° C | 80% | 1009.3 hPa | 0 mm | 0 m/s | 54 W/m² | - |
| 1778006574 | 16.11° C | 80% | 1009.4 hPa | 0 mm | 0 m/s | 52 W/m² | - |
| 1778006270 | 16.11° C | 80% | 1009.2 hPa | 0 mm | 0.45 m/s, 291° | 43 W/m² | - |
* Rain latest hour (hover to see other rain measurements)
** Current wind speed in m/s (hover to see current wind gust speed)